createdAt,value
2023-02-19T00:30:10.160Z,12.10
2023-02-19T00:36:38.499Z,12.00
2023-02-19T00:39:37.405Z,11.80
2023-02-19T00:42:13.457Z,11.90
2023-02-19T00:44:54.851Z,12.00
2023-02-19T01:23:22.619Z,11.70
2023-02-19T01:35:27.655Z,11.50
2023-02-19T01:38:27.644Z,11.50
2023-02-19T01:41:56.792Z,11.40
2023-02-19T01:46:37.187Z,11.30
2023-02-19T01:56:38.581Z,11.40
2023-02-19T01:59:36.655Z,11.20
2023-02-19T02:09:17.781Z,10.60
2023-02-19T02:11:53.501Z,10.60
2023-02-19T02:14:27.398Z,10.70
2023-02-19T02:17:17.373Z,10.60
2023-02-19T02:20:08.068Z,10.50
2023-02-19T02:22:57.276Z,10.60
2023-02-19T02:26:06.567Z,10.70
2023-02-19T02:29:33.723Z,10.80
2023-02-19T02:32:23.116Z,10.90
2023-02-19T02:35:24.614Z,11.00
2023-02-19T02:38:04.578Z,11.20
2023-02-19T02:40:35.353Z,11.00
2023-02-19T02:43:14.428Z,10.90
2023-02-19T02:46:33.073Z,11.00
2023-02-19T02:48:42.935Z,10.90
2023-02-19T02:51:19.958Z,10.80
2023-02-19T02:54:10.869Z,10.70
2023-02-19T02:56:43.648Z,10.50
2023-02-19T02:59:16.174Z,10.40
2023-02-19T03:02:08.288Z,10.60
2023-02-19T03:05:07.604Z,10.80
2023-02-19T03:07:44.206Z,10.80
2023-02-19T03:14:16.889Z,10.60
2023-02-19T03:17:08.068Z,10.20
2023-02-19T03:23:00.412Z,10.20
2023-02-19T03:25:55.412Z,10.20
2023-02-19T03:28:51.750Z,10.10
2023-02-19T03:32:09.632Z,10.00
2023-02-19T03:34:46.178Z,9.80
2023-02-19T03:37:32.664Z,9.90
2023-02-19T03:40:01.795Z,9.80
2023-02-19T03:42:44.744Z,9.80
2023-02-19T03:45:39.184Z,10.00
2023-02-19T03:48:28.020Z,10.10
2023-02-19T03:51:22.010Z,10.10
2023-02-19T03:54:12.445Z,10.10
2023-02-19T03:56:49.427Z,10.00
2023-02-19T03:59:26.197Z,9.90
2023-02-19T04:02:17.273Z,10.00
2023-02-19T04:05:01.595Z,10.00
2023-02-19T04:07:46.717Z,10.00
2023-02-19T04:10:40.597Z,10.00
2023-02-19T04:13:24.126Z,9.80
2023-02-19T04:16:16.497Z,9.80
2023-02-19T04:18:55.883Z,9.90
2023-02-19T04:21:30.152Z,9.90
2023-02-19T04:24:07.825Z,10.00
2023-02-19T04:26:38.050Z,10.00
2023-02-19T04:29:07.412Z,9.90
2023-02-19T04:31:38.505Z,9.70
2023-02-19T04:34:07.374Z,9.70
2023-02-19T04:36:36.233Z,9.60
2023-02-19T04:39:08.524Z,9.60
2023-02-19T04:41:37.232Z,9.60
2023-02-19T04:44:06.585Z,9.60
2023-02-19T04:46:35.342Z,9.70
2023-02-19T04:49:05.841Z,9.70
2023-02-19T04:51:34.798Z,9.80
2023-02-19T04:54:03.584Z,9.90
2023-02-19T04:56:33.855Z,10.00
2023-02-19T04:59:02.907Z,9.90
2023-02-19T05:01:31.650Z,10.00
2023-02-19T05:04:00.649Z,10.10
2023-02-19T05:06:30.899Z,9.90
2023-02-19T05:08:59.723Z,9.90
2023-02-19T05:11:29.947Z,9.80
2023-02-19T05:14:00.169Z,9.80
2023-02-19T05:16:30.582Z,9.80
2023-02-19T05:18:59.408Z,9.90
2023-02-19T05:21:28.431Z,9.80
2023-02-19T05:23:57.467Z,9.80
2023-02-19T05:26:26.843Z,9.80
2023-02-19T05:28:56.345Z,9.80
2023-02-19T05:31:28.021Z,9.80
2023-02-19T05:33:58.396Z,9.80
2023-02-19T05:36:27.593Z,9.70
2023-02-19T05:38:59.681Z,9.70
2023-02-19T05:41:31.401Z,9.60
2023-02-19T05:44:00.315Z,9.50
2023-02-19T05:46:31.628Z,9.60
2023-02-19T05:49:00.608Z,9.60
2023-02-19T05:51:30.425Z,9.60
2023-02-19T05:53:59.245Z,9.60
2023-02-19T05:56:36.077Z,9.40
2023-02-19T05:59:09.697Z,9.30
2023-02-19T06:01:39.999Z,9.20
2023-02-19T06:04:08.749Z,9.10
2023-02-19T06:06:38.298Z,9.00
2023-02-19T06:09:07.942Z,8.80
2023-02-19T06:11:37.590Z,8.70
2023-02-19T06:14:07.105Z,8.80
2023-02-19T06:16:36.034Z,8.80
2023-02-19T06:19:08.384Z,8.80
2023-02-19T06:21:37.279Z,8.70
2023-02-19T06:24:10.272Z,8.70
2023-02-19T06:26:39.773Z,8.50
2023-02-19T06:29:08.585Z,8.50
2023-02-19T06:31:37.321Z,8.50
2023-02-19T06:34:08.095Z,8.40
2023-02-19T06:36:36.725Z,8.50
2023-02-19T06:39:06.987Z,8.60
2023-02-19T06:41:35.708Z,8.60
2023-02-19T06:44:04.546Z,8.50
2023-02-19T06:46:33.279Z,8.40
2023-02-19T06:49:02.019Z,8.50
2023-02-19T06:51:33.138Z,8.60
2023-02-19T06:54:03.516Z,8.50
2023-02-19T06:56:34.802Z,8.50
2023-02-19T06:59:06.689Z,8.40
2023-02-19T07:01:37.742Z,8.40
2023-02-19T07:04:07.638Z,8.50
2023-02-19T07:06:38.893Z,8.50
2023-02-19T07:09:09.418Z,8.50
2023-02-19T07:11:41.037Z,8.60
2023-02-19T07:14:16.091Z,8.60
2023-02-19T07:16:47.448Z,8.50
2023-02-19T07:19:17.059Z,8.50
2023-02-19T07:21:47.133Z,8.70
2023-02-19T07:24:15.867Z,8.70
2023-02-19T07:26:44.655Z,8.90
2023-02-19T07:29:13.353Z,8.80
2023-02-19T07:31:42.110Z,8.80
2023-02-19T07:34:10.849Z,8.80
2023-02-19T07:36:39.512Z,8.80
2023-02-19T07:39:10.248Z,8.70
2023-02-19T07:41:39.585Z,8.70
2023-02-19T07:44:08.221Z,8.80
2023-02-19T07:46:36.961Z,8.80
2023-02-19T07:49:07.330Z,8.70
2023-02-19T07:51:36.191Z,8.70
2023-02-19T07:54:05.110Z,8.80
2023-02-19T07:56:35.530Z,8.90
2023-02-19T07:59:04.198Z,8.90
2023-02-19T08:01:50.446Z,9.00
2023-02-19T08:04:19.062Z,9.10
2023-02-19T08:06:47.766Z,9.20
2023-02-19T08:09:16.596Z,9.20
2023-02-19T08:12:04.182Z,9.20
2023-02-19T08:14:32.958Z,9.10
2023-02-19T08:17:01.695Z,9.10
2023-02-19T08:19:30.218Z,9.00
2023-02-19T08:21:58.913Z,9.10
2023-02-19T08:24:27.612Z,9.20
2023-02-19T08:26:57.921Z,9.20
2023-02-19T08:29:26.987Z,9.60
2023-02-19T08:31:59.598Z,9.90
2023-02-19T08:34:28.489Z,10.10
2023-02-19T08:36:58.673Z,10.50
2023-02-19T08:39:27.393Z,10.80
2023-02-19T08:41:59.076Z,11.00
2023-02-19T08:44:34.813Z,11.30
2023-02-19T08:47:05.150Z,11.80
2023-02-19T08:49:33.808Z,12.30
2023-02-19T08:52:02.525Z,12.20
2023-02-19T08:54:31.539Z,12.40
2023-02-19T08:57:01.723Z,12.50
2023-02-19T08:59:31.072Z,12.60
2023-02-19T09:02:01.134Z,12.60
2023-02-19T09:04:30.803Z,12.40
2023-02-19T09:06:59.817Z,12.10
2023-02-19T09:09:29.022Z,11.60
2023-02-19T09:11:58.355Z,11.20
2023-02-19T09:14:29.069Z,11.10
2023-02-19T09:16:58.275Z,10.70
2023-02-19T09:19:28.178Z,10.40
2023-02-19T09:21:58.755Z,10.40
2023-02-19T09:24:28.796Z,10.50
2023-02-19T09:26:58.197Z,10.30
2023-02-19T09:29:30.864Z,10.30
2023-02-19T09:32:01.946Z,10.20
2023-02-19T09:34:33.105Z,10.30
2023-02-19T09:37:03.880Z,10.40
2023-02-19T09:39:33.543Z,10.30
2023-02-19T09:42:14.324Z,10.40
2023-02-19T09:45:02.489Z,10.40
2023-02-19T09:47:40.259Z,10.50
2023-02-19T09:50:16.075Z,10.30
2023-02-19T09:53:03.487Z,10.20
2023-02-19T09:55:38.045Z,10.40
2023-02-19T09:58:25.895Z,10.30
2023-02-19T10:01:17.977Z,10.20
2023-02-19T10:04:29.947Z,10.30
2023-02-19T10:12:16.437Z,10.20
2023-02-19T10:14:15.613Z,10.50
2023-02-19T10:16:49.028Z,10.50
2023-02-19T10:19:30.705Z,10.50
2023-02-19T10:22:00.115Z,10.60
2023-02-19T10:24:31.741Z,10.70
2023-02-19T10:27:02.301Z,10.90
2023-02-19T10:29:32.191Z,10.90
2023-02-19T10:32:24.133Z,11.10
2023-02-19T10:35:13.969Z,10.80
2023-02-19T10:37:48.541Z,10.80
2023-02-19T10:40:20.910Z,10.60
2023-02-19T10:42:55.338Z,10.60
2023-02-19T10:45:31.002Z,10.80
2023-02-19T10:48:00.874Z,10.90
2023-02-19T10:50:34.071Z,11.00
2023-02-19T10:53:03.052Z,11.00
2023-02-19T10:55:37.839Z,11.30
2023-02-19T10:58:28.612Z,11.40
2023-02-19T11:01:15.831Z,11.50
2023-02-19T11:03:45.588Z,11.40
2023-02-19T11:06:16.845Z,11.40
2023-02-19T11:08:54.068Z,11.40
2023-02-19T11:11:36.042Z,11.50
2023-02-19T11:14:17.877Z,11.70
2023-02-19T11:16:52.106Z,11.60
2023-02-19T11:19:28.129Z,11.60
2023-02-19T11:21:57.330Z,11.50
2023-02-19T11:24:35.366Z,11.40
2023-02-19T11:27:07.773Z,11.30
2023-02-19T11:29:37.839Z,11.20
2023-02-19T11:32:27.430Z,11.10
2023-02-19T11:35:17.863Z,11.20
2023-02-19T11:37:58.773Z,11.20
2023-02-19T11:40:42.051Z,11.30
2023-02-19T11:43:36.888Z,11.30
2023-02-19T11:46:16.840Z,11.10
2023-02-19T11:48:56.002Z,11.20
2023-02-19T11:51:51.439Z,11.20
2023-02-19T11:54:45.735Z,11.20
2023-02-19T11:57:38.666Z,11.30
2023-02-19T12:00:29.628Z,11.40
2023-02-19T12:03:51.252Z,11.50
2023-02-19T12:06:31.619Z,11.40
2023-02-19T12:09:20.438Z,11.40
2023-02-19T12:12:08.857Z,11.40
2023-02-19T12:15:30.818Z,11.30
2023-02-19T12:18:55.491Z,11.20
2023-02-19T12:21:43.570Z,11.20
2023-02-19T12:24:55.289Z,11.10
2023-02-19T12:27:41.593Z,10.60
2023-02-19T12:30:42.007Z,10.10
2023-02-19T12:34:01.931Z,9.80
2023-02-19T12:36:43.240Z,9.90
2023-02-19T12:39:24.725Z,10.10
2023-02-19T12:42:04.186Z,10.20
2023-02-19T12:44:44.104Z,10.50
2023-02-19T12:47:23.025Z,10.70
2023-02-19T12:50:05.438Z,11.00
2023-02-19T12:52:42.501Z,11.10
2023-02-19T12:55:23.899Z,11.80
2023-02-19T12:57:55.005Z,12.30
2023-02-19T13:00:36.964Z,12.20
2023-02-19T13:03:21.031Z,12.00
2023-02-19T13:05:58.717Z,12.00
2023-02-19T13:08:36.580Z,11.60
2023-02-19T13:11:15.782Z,11.30
2023-02-19T13:13:52.162Z,11.20
2023-02-19T13:16:23.473Z,11.10
2023-02-19T13:18:57.095Z,11.30
2023-02-19T13:21:49.801Z,11.50
2023-02-19T13:24:28.307Z,11.50
2023-02-19T13:27:36.781Z,11.60
2023-02-19T13:30:29.170Z,11.90
2023-02-19T13:33:08.505Z,12.00
2023-02-19T13:36:15.464Z,11.80
2023-02-19T13:38:47.336Z,11.40
2023-02-19T13:41:28.626Z,11.50
2023-02-19T13:44:02.938Z,11.70
2023-02-19T13:46:40.283Z,11.80
2023-02-19T13:49:43.315Z,12.00
2023-02-19T13:52:41.784Z,12.10
2023-02-19T13:55:49.867Z,12.10
2023-02-19T13:59:01.615Z,12.10
2023-02-19T14:02:27.175Z,12.00
2023-02-19T14:05:00.250Z,12.00
2023-02-19T14:07:55.139Z,12.00
2023-02-19T14:10:53.977Z,11.60
2023-02-19T14:14:28.228Z,11.20
2023-02-19T14:17:07.645Z,11.10
2023-02-19T14:19:55.489Z,11.00
2023-02-19T14:23:17.120Z,11.00
2023-02-19T14:25:55.989Z,11.10
2023-02-19T14:28:31.070Z,11.20
2023-02-19T14:31:10.666Z,11.20
2023-02-19T14:33:44.837Z,11.30
2023-02-19T14:36:32.668Z,11.40
2023-02-19T14:39:05.099Z,11.40
2023-02-19T14:41:40.191Z,11.30
2023-02-19T14:44:17.916Z,11.30
2023-02-19T14:46:57.944Z,11.40
2023-02-19T14:49:36.038Z,11.40
2023-02-19T14:52:09.481Z,11.50
2023-02-19T14:54:44.092Z,11.50
2023-02-19T14:57:19.618Z,11.50
2023-02-19T14:59:58.396Z,11.50
2023-02-19T15:02:29.967Z,11.40
2023-02-19T15:04:59.290Z,11.40
2023-02-19T15:07:34.595Z,11.30
2023-02-19T15:10:06.644Z,11.20
2023-02-19T15:12:46.417Z,11.10
2023-02-19T15:15:23.444Z,11.10
2023-02-19T15:17:56.935Z,10.90
2023-02-19T15:20:32.006Z,10.90
2023-02-19T15:23:03.231Z,10.60
2023-02-19T15:25:37.399Z,10.50
2023-02-19T15:28:26.769Z,10.60
2023-02-19T15:31:08.642Z,10.60
2023-02-19T15:33:39.593Z,10.50
2023-02-19T15:36:11.786Z,10.50
2023-02-19T15:38:41.447Z,10.60
2023-02-19T15:41:24.718Z,10.40
2023-02-19T15:44:03.366Z,10.40
2023-02-19T15:46:32.426Z,10.40
2023-02-19T15:49:08.970Z,10.50
2023-02-19T15:51:47.363Z,10.60
2023-02-19T15:54:27.162Z,10.90
2023-02-19T15:57:01.873Z,10.90
2023-02-19T15:59:37.035Z,10.80
2023-02-19T16:02:06.354Z,10.70
2023-02-19T16:04:38.370Z,10.70
2023-02-19T16:07:07.614Z,10.70
2023-02-19T16:09:40.130Z,10.70
2023-02-19T16:12:23.732Z,10.70
2023-02-19T16:14:54.226Z,10.70
2023-02-19T16:17:29.489Z,10.90
2023-02-19T16:20:08.918Z,10.80
2023-02-19T16:23:00.204Z,10.60
2023-02-19T16:25:40.937Z,10.50
2023-02-19T16:28:21.020Z,10.60
2023-02-19T16:31:01.075Z,10.70
2023-02-19T16:33:46.923Z,10.70
2023-02-19T16:36:37.911Z,10.80
2023-02-19T16:39:35.159Z,10.70
2023-02-19T16:42:16.020Z,10.70
2023-02-19T16:44:46.065Z,10.80
2023-02-19T16:47:34.211Z,10.80
2023-02-19T16:50:16.069Z,10.90
2023-02-19T16:52:58.160Z,10.80
2023-02-19T16:55:27.757Z,10.70
2023-02-19T16:57:56.714Z,10.60
2023-02-19T17:00:27.844Z,10.60
2023-02-19T17:03:09.353Z,10.30
2023-02-19T17:05:40.212Z,10.30
2023-02-19T17:08:42.445Z,10.30
2023-02-19T17:11:16.634Z,10.40
2023-02-19T17:13:47.088Z,10.40
2023-02-19T17:16:22.841Z,10.40
2023-02-19T17:18:52.718Z,10.60
2023-02-19T17:21:24.373Z,10.70
2023-02-19T17:23:55.900Z,10.80
2023-02-19T17:26:27.910Z,10.90
2023-02-19T17:28:58.491Z,11.00
2023-02-19T17:31:29.292Z,11.10
2023-02-19T17:33:59.080Z,11.10
2023-02-19T17:36:31.140Z,11.20
2023-02-19T17:39:03.228Z,11.10
2023-02-19T17:41:32.100Z,11.10
2023-02-19T17:44:00.781Z,11.10
2023-02-19T17:46:29.464Z,11.10
2023-02-19T17:48:59.471Z,11.00
2023-02-19T17:51:28.549Z,11.10
2023-02-19T17:53:57.378Z,11.10
2023-02-19T17:56:31.219Z,11.10
2023-02-19T18:01:56.003Z,11.20
2023-02-19T18:04:27.313Z,11.20
2023-02-19T18:06:56.951Z,11.00
2023-02-19T18:09:27.048Z,10.80
2023-02-19T18:11:58.937Z,10.90
2023-02-19T18:14:28.519Z,11.00
2023-02-19T18:16:58.289Z,10.90
2023-02-19T18:19:27.199Z,10.90
2023-02-19T18:21:55.756Z,10.90
2023-02-19T18:24:24.497Z,11.00
2023-02-19T18:26:53.592Z,11.00
2023-02-19T18:29:26.109Z,10.80
2023-02-19T18:31:54.912Z,10.80
2023-02-19T18:34:23.858Z,10.80
2023-02-19T18:36:52.927Z,10.80
2023-02-19T18:39:21.654Z,10.70
2023-02-19T18:41:52.028Z,10.60
2023-02-19T18:44:24.085Z,10.50
2023-02-19T18:46:53.708Z,10.40
2023-02-19T18:49:22.286Z,10.20
2023-02-19T18:51:51.407Z,10.20
2023-02-19T18:54:25.194Z,10.10
2023-02-19T18:56:53.856Z,10.10
2023-02-19T18:59:25.045Z,10.10
2023-02-19T19:02:07.923Z,9.90
2023-02-19T19:04:50.111Z,9.90
2023-02-19T19:07:20.615Z,10.10
2023-02-19T19:09:49.911Z,10.10
2023-02-19T19:12:18.754Z,9.90
2023-02-19T19:14:49.187Z,10.10
2023-02-19T19:17:19.818Z,10.20
2023-02-19T19:19:50.715Z,10.30
2023-02-19T19:22:22.965Z,10.10
2023-02-19T19:24:51.713Z,10.10
2023-02-19T19:27:20.930Z,10.00
2023-02-19T19:29:52.128Z,10.00
2023-02-19T19:32:42.012Z,10.10
2023-02-19T19:35:12.947Z,10.30
2023-02-19T19:37:41.632Z,10.30
2023-02-19T19:40:13.412Z,10.40
2023-02-19T19:42:43.610Z,10.50
2023-02-19T19:45:15.557Z,10.50
2023-02-19T19:47:44.763Z,10.40
2023-02-19T19:50:14.590Z,10.50
2023-02-19T19:52:43.745Z,10.50
2023-02-19T19:55:12.708Z,10.50
2023-02-19T19:57:43.565Z,10.40
2023-02-19T20:00:18.365Z,10.30
2023-02-19T20:02:47.753Z,10.40
2023-02-19T20:05:17.272Z,10.30
2023-02-19T20:08:15.067Z,10.30
2023-02-19T20:10:55.793Z,10.30
2023-02-19T20:13:27.848Z,9.90
2023-02-19T20:16:00.519Z,10.00
2023-02-19T20:18:39.863Z,10.10
2023-02-19T20:21:11.199Z,10.10
2023-02-19T20:23:40.902Z,10.00
2023-02-19T20:26:09.863Z,10.00
2023-02-19T20:28:45.323Z,9.90
2023-02-19T20:31:18.022Z,9.80
2023-02-19T20:33:47.916Z,9.90
2023-02-19T20:36:17.081Z,10.00
2023-02-19T20:38:47.441Z,10.20
2023-02-19T20:41:22.463Z,10.20
2023-02-19T20:43:51.655Z,10.00
2023-02-19T20:46:21.933Z,10.10
2023-02-19T20:48:52.800Z,10.10
2023-02-19T20:51:21.523Z,10.20
2023-02-19T20:53:53.564Z,10.30
2023-02-19T20:56:32.574Z,10.40
2023-02-19T20:59:03.359Z,10.50
2023-02-19T21:01:33.648Z,10.40
2023-02-19T21:04:05.647Z,10.40
2023-02-19T21:06:35.724Z,10.30
2023-02-19T21:09:05.957Z,10.40
2023-02-19T21:11:38.113Z,10.30
2023-02-19T21:14:09.153Z,10.20
2023-02-19T21:16:45.652Z,10.10
2023-02-19T21:19:15.821Z,9.90
2023-02-19T21:21:44.634Z,10.00
2023-02-19T21:24:15.562Z,10.10
2023-02-19T21:26:45.865Z,10.20
2023-02-19T21:29:27.553Z,10.30
2023-02-19T21:32:01.153Z,10.30
2023-02-19T21:34:31.504Z,10.10
2023-02-19T21:37:00.301Z,10.10
2023-02-19T21:39:32.718Z,10.20
2023-02-19T21:42:01.859Z,10.10
2023-02-19T21:44:30.647Z,10.10
2023-02-19T21:47:00.784Z,10.30
2023-02-19T21:49:29.813Z,10.20
2023-02-19T21:52:00.010Z,10.30
2023-02-19T21:54:30.633Z,10.40
2023-02-19T21:57:03.684Z,10.30
2023-02-19T21:59:46.985Z,10.30
2023-02-19T22:02:19.935Z,10.30
2023-02-19T22:05:03.356Z,10.20
2023-02-19T22:07:33.505Z,10.20
2023-02-19T22:10:06.613Z,10.30
2023-02-19T22:12:40.006Z,10.20
2023-02-19T22:15:09.521Z,10.30
2023-02-19T22:17:42.174Z,10.40
2023-02-19T22:20:27.922Z,10.30
2023-02-19T22:23:06.383Z,10.30
2023-02-19T22:25:38.748Z,10.20
2023-02-19T22:28:10.788Z,10.10
2023-02-19T22:37:27.861Z,10.10
2023-02-19T22:40:18.677Z,10.20
2023-02-19T22:42:30.237Z,10.30
2023-02-19T22:45:00.524Z,10.40
2023-02-19T22:47:29.226Z,10.40
2023-02-19T22:50:05.322Z,10.30
2023-02-19T22:52:34.323Z,10.30
2023-02-19T22:55:03.950Z,10.30
2023-02-19T22:57:32.716Z,10.20
2023-02-19T23:00:01.420Z,10.20
2023-02-19T23:02:30.199Z,10.30
2023-02-19T23:05:00.480Z,10.20
2023-02-19T23:07:29.136Z,10.30
2023-02-19T23:09:57.833Z,10.40
2023-02-19T23:12:26.837Z,10.50
2023-02-19T23:14:56.474Z,10.50
2023-02-19T23:17:25.350Z,10.50
2023-02-19T23:20:09.384Z,10.50
2023-02-19T23:23:19.305Z,10.60
2023-02-19T23:26:04.608Z,10.60
2023-02-19T23:28:35.484Z,10.60
2023-02-19T23:31:04.468Z,10.70
2023-02-19T23:33:39.757Z,10.70
2023-02-19T23:36:15.185Z,10.80
2023-02-19T23:38:58.874Z,10.80
2023-02-19T23:41:33.513Z,10.90
2023-02-19T23:44:04.201Z,10.80
2023-02-19T23:46:48.121Z,10.70
2023-02-19T23:49:21.511Z,10.60
2023-02-19T23:51:51.893Z,10.50
2023-02-19T23:55:11.430Z,10.60
2023-02-19T23:57:30.796Z,10.60
